sensor_id;sensor_type;location;lat;lon;timestamp;P1;P2;P0
48717;PMS5003;34521;33.042;-96.586;2023-05-07T00:00:35;8;8;
48717;PMS5003;34521;33.042;-96.586;2023-05-07T00:03:00;9;8;
48717;PMS5003;34521;33.042;-96.586;2023-05-07T00:05:25;8;8;
48717;PMS5003;34521;33.042;-96.586;2023-05-07T00:07:50;11;10;
48717;PMS5003;34521;33.042;-96.586;2023-05-07T00:10:15;9;9;
48717;PMS5003;34521;33.042;-96.586;2023-05-07T00:12:40;9;9;
48717;PMS5003;34521;33.042;-96.586;2023-05-07T00:15:06;9;9;
48717;PMS5003;34521;33.042;-96.586;2023-05-07T00:17:33;9;8;
48717;PMS5003;34521;33.042;-96.586;2023-05-07T00:19:56;10;9;
48717;PMS5003;34521;33.042;-96.586;2023-05-07T00:22:21;10;10;
48717;PMS5003;34521;33.042;-96.586;2023-05-07T00:24:46;10;9;
48717;PMS5003;34521;33.042;-96.586;2023-05-07T00:27:11;9;9;
48717;PMS5003;34521;33.042;-96.586;2023-05-07T00:29:36;8;8;
48717;PMS5003;34521;33.042;-96.586;2023-05-07T00:32:01;8;7;
48717;PMS5003;34521;33.042;-96.586;2023-05-07T00:34:26;10;9;
48717;PMS5003;34521;33.042;-96.586;2023-05-07T00:36:51;6;6;
48717;PMS5003;34521;33.042;-96.586;2023-05-07T00:39:17;9;9;
48717;PMS5003;34521;33.042;-96.586;2023-05-07T00:41:42;10;9;
48717;PMS5003;34521;33.042;-96.586;2023-05-07T00:44:07;12;11;
48717;PMS5003;34521;33.042;-96.586;2023-05-07T00:46:32;8;8;
48717;PMS5003;34521;33.042;-96.586;2023-05-07T00:48:57;11;10;
48717;PMS5003;34521;33.042;-96.586;2023-05-07T00:51:23;7;7;
48717;PMS5003;34521;33.042;-96.586;2023-05-07T00:53:48;8;7;
48717;PMS5003;34521;33.042;-96.586;2023-05-07T00:56:12;7;7;
48717;PMS5003;34521;33.042;-96.586;2023-05-07T00:58:37;8;8;
48717;PMS5003;34521;33.042;-96.586;2023-05-07T01:01:02;7;7;
48717;PMS5003;34521;33.042;-96.586;2023-05-07T01:03:27;6;6;
48717;PMS5003;34521;33.042;-96.586;2023-05-07T01:05:53;6;6;
48717;PMS5003;34521;33.042;-96.586;2023-05-07T01:08:18;6;6;
48717;PMS5003;34521;33.042;-96.586;2023-05-07T01:10:43;8;7;
48717;PMS5003;34521;33.042;-96.586;2023-05-07T01:13:13;9;8;
48717;PMS5003;34521;33.042;-96.586;2023-05-07T01:15:33;10;9;
48717;PMS5003;34521;33.042;-96.586;2023-05-07T01:17:58;8;7;
48717;PMS5003;34521;33.042;-96.586;2023-05-07T01:20:23;8;7;
48717;PMS5003;34521;33.042;-96.586;2023-05-07T01:22:48;8;7;
48717;PMS5003;34521;33.042;-96.586;2023-05-07T01:25:14;6;6;
48717;PMS5003;34521;33.042;-96.586;2023-05-07T01:27:38;8;7;
48717;PMS5003;34521;33.042;-96.586;2023-05-07T01:30:04;10;9;
48717;PMS5003;34521;33.042;-96.586;2023-05-07T01:32:30;8;8;
48717;PMS5003;34521;33.042;-96.586;2023-05-07T01:34:54;8;7;
48717;PMS5003;34521;33.042;-96.586;2023-05-07T01:37:20;9;8;
48717;PMS5003;34521;33.042;-96.586;2023-05-07T01:39:44;9;8;
48717;PMS5003;34521;33.042;-96.586;2023-05-07T01:42:09;7;7;
48717;PMS5003;34521;33.042;-96.586;2023-05-07T01:44:34;9;8;
48717;PMS5003;34521;33.042;-96.586;2023-05-07T01:47:00;10;9;
48717;PMS5003;34521;33.042;-96.586;2023-05-07T01:49:24;8;8;
48717;PMS5003;34521;33.042;-96.586;2023-05-07T01:51:50;8;8;
48717;PMS5003;34521;33.042;-96.586;2023-05-07T01:54:15;6;6;
48717;PMS5003;34521;33.042;-96.586;2023-05-07T01:56:40;10;10;
48717;PMS5003;34521;33.042;-96.586;2023-05-07T01:59:05;7;7;
48717;PMS5003;34521;33.042;-96.586;2023-05-07T02:01:30;8;8;
48717;PMS5003;34521;33.042;-96.586;2023-05-07T02:03:55;8;7;
48717;PMS5003;34521;33.042;-96.586;2023-05-07T02:06:21;6;6;
48717;PMS5003;34521;33.042;-96.586;2023-05-07T02:08:46;6;6;
48717;PMS5003;34521;33.042;-96.586;2023-05-07T02:11:10;8;7;
48717;PMS5003;34521;33.042;-96.586;2023-05-07T02:13:36;8;7;
48717;PMS5003;34521;33.042;-96.586;2023-05-07T02:16:02;9;8;
48717;PMS5003;34521;33.042;-96.586;2023-05-07T02:18:27;10;8;
48717;PMS5003;34521;33.042;-96.586;2023-05-07T02:20:52;7;7;
48717;PMS5003;34521;33.042;-96.586;2023-05-07T02:23:17;8;7;
48717;PMS5003;34521;33.042;-96.586;2023-05-07T02:25:42;7;7;
48717;PMS5003;34521;33.042;-96.586;2023-05-07T02:28:07;8;7;
48717;PMS5003;34521;33.042;-96.586;2023-05-07T02:30:32;6;5;
48717;PMS5003;34521;33.042;-96.586;2023-05-07T02:32:57;8;8;
48717;PMS5003;34521;33.042;-96.586;2023-05-07T02:35:24;9;8;
48717;PMS5003;34521;33.042;-96.586;2023-05-07T02:37:48;8;7;
48717;PMS5003;34521;33.042;-96.586;2023-05-07T02:40:13;8;8;
48717;PMS5003;34521;33.042;-96.586;2023-05-07T02:42:38;9;7;
48717;PMS5003;34521;33.042;-96.586;2023-05-07T02:45:04;5;5;
48717;PMS5003;34521;33.042;-96.586;2023-05-07T02:47:28;6;5;
48717;PMS5003;34521;33.042;-96.586;2023-05-07T02:49:54;7;7;
48717;PMS5003;34521;33.042;-96.586;2023-05-07T02:52:19;8;8;
48717;PMS5003;34521;33.042;-96.586;2023-05-07T02:54:44;7;7;
48717;PMS5003;34521;33.042;-96.586;2023-05-07T02:57:09;5;5;
48717;PMS5003;34521;33.042;-96.586;2023-05-07T02:59:35;10;8;
48717;PMS5003;34521;33.042;-96.586;2023-05-07T03:01:59;6;5;
48717;PMS5003;34521;33.042;-96.586;2023-05-07T03:04:24;5;5;
48717;PMS5003;34521;33.042;-96.586;2023-05-07T03:06:49;8;7;
48717;PMS5003;34521;33.042;-96.586;2023-05-07T03:09:14;7;7;
48717;PMS5003;34521;33.042;-96.586;2023-05-07T03:11:39;6;6;
48717;PMS5003;34521;33.042;-96.586;2023-05-07T03:14:05;7;6;
48717;PMS5003;34521;33.042;-96.586;2023-05-07T03:16:34;6;6;
48717;PMS5003;34521;33.042;-96.586;2023-05-07T03:18:55;5;5;
48717;PMS5003;34521;33.042;-96.586;2023-05-07T03:21:20;7;6;
48717;PMS5003;34521;33.042;-96.586;2023-05-07T03:23:45;5;4;
48717;PMS5003;34521;33.042;-96.586;2023-05-07T03:26:10;4;4;
48717;PMS5003;34521;33.042;-96.586;2023-05-07T03:28:35;9;9;
48717;PMS5003;34521;33.042;-96.586;2023-05-07T03:31:00;8;7;
48717;PMS5003;34521;33.042;-96.586;2023-05-07T03:33:25;4;4;
48717;PMS5003;34521;33.042;-96.586;2023-05-07T03:35:50;6;6;
48717;PMS5003;34521;33.042;-96.586;2023-05-07T03:38:15;5;5;
48717;PMS5003;34521;33.042;-96.586;2023-05-07T03:40:40;7;6;
48717;PMS5003;34521;33.042;-96.586;2023-05-07T03:43:05;4;4;
48717;PMS5003;34521;33.042;-96.586;2023-05-07T03:45:30;7;6;
48717;PMS5003;34521;33.042;-96.586;2023-05-07T03:47:55;6;6;
48717;PMS5003;34521;33.042;-96.586;2023-05-07T03:50:20;6;5;
48717;PMS5003;34521;33.042;-96.586;2023-05-07T03:52:45;6;5;
48717;PMS5003;34521;33.042;-96.586;2023-05-07T03:55:11;7;7;
48717;PMS5003;34521;33.042;-96.586;2023-05-07T03:57:36;6;6;
48717;PMS5003;34521;33.042;-96.586;2023-05-07T04:00:00;6;6;
48717;PMS5003;34521;33.042;-96.586;2023-05-07T04:02:26;8;7;
48717;PMS5003;34521;33.042;-96.586;2023-05-07T04:04:51;7;6;
48717;PMS5003;34521;33.042;-96.586;2023-05-07T04:07:16;7;6;
48717;PMS5003;34521;33.042;-96.586;2023-05-07T04:09:41;6;6;
48717;PMS5003;34521;33.042;-96.586;2023-05-07T04:12:06;5;5;
48717;PMS5003;34521;33.042;-96.586;2023-05-07T04:14:32;4;4;
48717;PMS5003;34521;33.042;-96.586;2023-05-07T04:16:56;6;6;
48717;PMS5003;34521;33.042;-96.586;2023-05-07T04:19:22;6;6;
48717;PMS5003;34521;33.042;-96.586;2023-05-07T04:21:47;6;6;
48717;PMS5003;34521;33.042;-96.586;2023-05-07T04:24:12;6;6;
48717;PMS5003;34521;33.042;-96.586;2023-05-07T04:26:37;3;3;
48717;PMS5003;34521;33.042;-96.586;2023-05-07T04:29:02;4;4;
48717;PMS5003;34521;33.042;-96.586;2023-05-07T04:31:27;6;5;
48717;PMS5003;34521;33.042;-96.586;2023-05-07T04:33:52;6;5;
48717;PMS5003;34521;33.042;-96.586;2023-05-07T04:36:17;6;6;
48717;PMS5003;34521;33.042;-96.586;2023-05-07T04:38:42;5;5;
48717;PMS5003;34521;33.042;-96.586;2023-05-07T04:41:08;4;4;
48717;PMS5003;34521;33.042;-96.586;2023-05-07T04:43:33;6;5;
48717;PMS5003;34521;33.042;-96.586;2023-05-07T04:45:57;4;4;
48717;PMS5003;34521;33.042;-96.586;2023-05-07T04:48:22;6;6;
48717;PMS5003;34521;33.042;-96.586;2023-05-07T04:50:48;5;5;
48717;PMS5003;34521;33.042;-96.586;2023-05-07T04:53:13;5;5;
48717;PMS5003;34521;33.042;-96.586;2023-05-07T04:55:38;4;4;
48717;PMS5003;34521;33.042;-96.586;2023-05-07T04:58:03;4;4;
48717;PMS5003;34521;33.042;-96.586;2023-05-07T05:00:28;6;5;
48717;PMS5003;34521;33.042;-96.586;2023-05-07T05:02:53;5;5;
48717;PMS5003;34521;33.042;-96.586;2023-05-07T05:05:18;3;3;
48717;PMS5003;34521;33.042;-96.586;2023-05-07T05:07:43;5;4;
48717;PMS5003;34521;33.042;-96.586;2023-05-07T05:10:08;4;4;
48717;PMS5003;34521;33.042;-96.586;2023-05-07T05:12:33;5;5;
48717;PMS5003;34521;33.042;-96.586;2023-05-07T05:14:58;5;5;
48717;PMS5003;34521;33.042;-96.586;2023-05-07T05:17:23;4;4;
48717;PMS5003;34521;33.042;-96.586;2023-05-07T05:19:48;3;3;
48717;PMS5003;34521;33.042;-96.586;2023-05-07T05:22:13;5;5;
48717;PMS5003;34521;33.042;-96.586;2023-05-07T05:24:38;4;3;
48717;PMS5003;34521;33.042;-96.586;2023-05-07T05:27:03;5;4;
48717;PMS5003;34521;33.042;-96.586;2023-05-07T05:29:28;4;4;
48717;PMS5003;34521;33.042;-96.586;2023-05-07T05:31:53;4;4;
48717;PMS5003;34521;33.042;-96.586;2023-05-07T05:34:19;4;4;
48717;PMS5003;34521;33.042;-96.586;2023-05-07T05:36:44;3;3;
48717;PMS5003;34521;33.042;-96.586;2023-05-07T05:39:08;4;4;
48717;PMS5003;34521;33.042;-96.586;2023-05-07T05:41:34;3;3;
48717;PMS5003;34521;33.042;-96.586;2023-05-07T05:43:58;3;3;
48717;PMS5003;34521;33.042;-96.586;2023-05-07T05:46:24;3;3;
48717;PMS5003;34521;33.042;-96.586;2023-05-07T05:48:49;2;2;
48717;PMS5003;34521;33.042;-96.586;2023-05-07T05:51:14;3;3;
48717;PMS5003;34521;33.042;-96.586;2023-05-07T05:53:39;3;3;
48717;PMS5003;34521;33.042;-96.586;2023-05-07T05:56:05;4;3;
48717;PMS5003;34521;33.042;-96.586;2023-05-07T05:58:30;4;4;
48717;PMS5003;34521;33.042;-96.586;2023-05-07T06:00:54;3;3;
48717;PMS5003;34521;33.042;-96.586;2023-05-07T06:03:20;3;3;
48717;PMS5003;34521;33.042;-96.586;2023-05-07T06:05:45;3;3;
48717;PMS5003;34521;33.042;-96.586;2023-05-07T06:08:10;4;4;
48717;PMS5003;34521;33.042;-96.586;2023-05-07T06:10:36;3;3;
48717;PMS5003;34521;33.042;-96.586;2023-05-07T06:13:00;2;2;
48717;PMS5003;34521;33.042;-96.586;2023-05-07T06:15:25;4;3;
48717;PMS5003;34521;33.042;-96.586;2023-05-07T06:17:50;3;3;
48717;PMS5003;34521;33.042;-96.586;2023-05-07T06:20:15;3;2;
48717;PMS5003;34521;33.042;-96.586;2023-05-07T06:22:40;4;3;
48717;PMS5003;34521;33.042;-96.586;2023-05-07T06:25:05;2;2;
48717;PMS5003;34521;33.042;-96.586;2023-05-07T06:27:31;2;2;
48717;PMS5003;34521;33.042;-96.586;2023-05-07T06:29:55;3;3;
48717;PMS5003;34521;33.042;-96.586;2023-05-07T06:32:20;2;2;
48717;PMS5003;34521;33.042;-96.586;2023-05-07T06:34:45;2;1;
48717;PMS5003;34521;33.042;-96.586;2023-05-07T06:37:10;3;3;
48717;PMS5003;34521;33.042;-96.586;2023-05-07T06:39:36;0;0;
48717;PMS5003;34521;33.042;-96.586;2023-05-07T06:42:01;2;2;
48717;PMS5003;34521;33.042;-96.586;2023-05-07T06:44:26;3;3;
48717;PMS5003;34521;33.042;-96.586;2023-05-07T06:46:51;2;2;
48717;PMS5003;34521;33.042;-96.586;2023-05-07T06:49:16;3;3;
48717;PMS5003;34521;33.042;-96.586;2023-05-07T06:51:41;3;3;
48717;PMS5003;34521;33.042;-96.586;2023-05-07T06:54:06;2;2;
48717;PMS5003;34521;33.042;-96.586;2023-05-07T06:56:31;4;3;
48717;PMS5003;34521;33.042;-96.586;2023-05-07T06:58:56;2;2;
48717;PMS5003;34521;33.042;-96.586;2023-05-07T07:01:21;2;2;
48717;PMS5003;34521;33.042;-96.586;2023-05-07T07:03:46;2;1;
48717;PMS5003;34521;33.042;-96.586;2023-05-07T07:06:11;1;1;
48717;PMS5003;34521;33.042;-96.586;2023-05-07T07:08:36;1;1;
48717;PMS5003;34521;33.042;-96.586;2023-05-07T07:11:01;1;1;
48717;PMS5003;34521;33.042;-96.586;2023-05-07T07:13:26;2;2;
48717;PMS5003;34521;33.042;-96.586;2023-05-07T07:15:51;2;2;
48717;PMS5003;34521;33.042;-96.586;2023-05-07T07:18:16;2;2;
48717;PMS5003;34521;33.042;-96.586;2023-05-07T07:20:41;0;0;
48717;PMS5003;34521;33.042;-96.586;2023-05-07T07:23:06;2;2;
48717;PMS5003;34521;33.042;-96.586;2023-05-07T07:25:31;2;1;
48717;PMS5003;34521;33.042;-96.586;2023-05-07T07:27:56;1;1;
48717;PMS5003;34521;33.042;-96.586;2023-05-07T07:30:21;2;2;
48717;PMS5003;34521;33.042;-96.586;2023-05-07T07:32:47;3;2;
48717;PMS5003;34521;33.042;-96.586;2023-05-07T07:35:11;3;2;
48717;PMS5003;34521;33.042;-96.586;2023-05-07T07:37:37;2;2;
48717;PMS5003;34521;33.042;-96.586;2023-05-07T07:40:02;0;0;
48717;PMS5003;34521;33.042;-96.586;2023-05-07T07:42:27;1;1;
48717;PMS5003;34521;33.042;-96.586;2023-05-07T07:44:52;1;1;
48717;PMS5003;34521;33.042;-96.586;2023-05-07T07:47:17;0;0;
48717;PMS5003;34521;33.042;-96.586;2023-05-07T07:49:42;1;1;
48717;PMS5003;34521;33.042;-96.586;2023-05-07T07:52:07;2;2;
48717;PMS5003;34521;33.042;-96.586;2023-05-07T07:54:32;1;1;
48717;PMS5003;34521;33.042;-96.586;2023-05-07T07:56:57;1;1;
48717;PMS5003;34521;33.042;-96.586;2023-05-07T07:59:23;0;0;
48717;PMS5003;34521;33.042;-96.586;2023-05-07T08:01:47;1;1;
48717;PMS5003;34521;33.042;-96.586;2023-05-07T08:04:12;1;1;
48717;PMS5003;34521;33.042;-96.586;2023-05-07T08:06:37;1;1;
48717;PMS5003;34521;33.042;-96.586;2023-05-07T08:09:02;0;0;
48717;PMS5003;34521;33.042;-96.586;2023-05-07T08:11:27;1;1;
48717;PMS5003;34521;33.042;-96.586;2023-05-07T08:13:53;1;1;
48717;PMS5003;34521;33.042;-96.586;2023-05-07T08:16:17;1;1;
48717;PMS5003;34521;33.042;-96.586;2023-05-07T08:18:42;0;0;
48717;PMS5003;34521;33.042;-96.586;2023-05-07T08:21:08;0;0;
48717;PMS5003;34521;33.042;-96.586;2023-05-07T08:23:32;1;1;
48717;PMS5003;34521;33.042;-96.586;2023-05-07T08:25:58;1;1;
48717;PMS5003;34521;33.042;-96.586;2023-05-07T08:28:23;1;1;
48717;PMS5003;34521;33.042;-96.586;2023-05-07T08:30:48;1;1;
48717;PMS5003;34521;33.042;-96.586;2023-05-07T08:33:13;2;1;
48717;PMS5003;34521;33.042;-96.586;2023-05-07T08:35:38;1;1;
48717;PMS5003;34521;33.042;-96.586;2023-05-07T08:38:03;0;0;
48717;PMS5003;34521;33.042;-96.586;2023-05-07T08:40:28;1;1;
48717;PMS5003;34521;33.042;-96.586;2023-05-07T08:42:53;2;2;
48717;PMS5003;34521;33.042;-96.586;2023-05-07T08:45:18;0;0;
48717;PMS5003;34521;33.042;-96.586;2023-05-07T08:47:43;0;0;
48717;PMS5003;34521;33.042;-96.586;2023-05-07T08:50:08;1;1;
48717;PMS5003;34521;33.042;-96.586;2023-05-07T08:52:33;0;0;
48717;PMS5003;34521;33.042;-96.586;2023-05-07T08:54:58;0;0;
48717;PMS5003;34521;33.042;-96.586;2023-05-07T08:57:23;1;1;
48717;PMS5003;34521;33.042;-96.586;2023-05-07T08:59:48;0;0;
48717;PMS5003;34521;33.042;-96.586;2023-05-07T09:02:13;1;1;
48717;PMS5003;34521;33.042;-96.586;2023-05-07T09:04:38;0;0;
48717;PMS5003;34521;33.042;-96.586;2023-05-07T09:07:03;1;1;
48717;PMS5003;34521;33.042;-96.586;2023-05-07T09:09:28;1;1;
48717;PMS5003;34521;33.042;-96.586;2023-05-07T09:11:56;1;0;
48717;PMS5003;34521;33.042;-96.586;2023-05-07T09:14:18;0;0;
48717;PMS5003;34521;33.042;-96.586;2023-05-07T09:16:43;1;1;
48717;PMS5003;34521;33.042;-96.586;2023-05-07T09:19:08;1;1;
48717;PMS5003;34521;33.042;-96.586;2023-05-07T09:21:33;1;1;
48717;PMS5003;34521;33.042;-96.586;2023-05-07T09:23:58;0;0;
48717;PMS5003;34521;33.042;-96.586;2023-05-07T09:26:24;1;1;
48717;PMS5003;34521;33.042;-96.586;2023-05-07T09:28:49;1;1;
48717;PMS5003;34521;33.042;-96.586;2023-05-07T09:31:14;1;1;
48717;PMS5003;34521;33.042;-96.586;2023-05-07T09:33:39;1;1;
48717;PMS5003;34521;33.042;-96.586;2023-05-07T09:36:04;0;0;
48717;PMS5003;34521;33.042;-96.586;2023-05-07T09:38:29;1;1;
48717;PMS5003;34521;33.042;-96.586;2023-05-07T09:43:19;1;1;
48717;PMS5003;34521;33.042;-96.586;2023-05-07T09:45:44;1;0;
48717;PMS5003;34521;33.042;-96.586;2023-05-07T09:48:09;1;1;
48717;PMS5003;34521;33.042;-96.586;2023-05-07T09:50:36;1;1;
48717;PMS5003;34521;33.042;-96.586;2023-05-07T09:52:59;1;1;
48717;PMS5003;34521;33.042;-96.586;2023-05-07T09:55:24;1;0;
48717;PMS5003;34521;33.042;-96.586;2023-05-07T09:57:49;1;1;
48717;PMS5003;34521;33.042;-96.586;2023-05-07T10:00:14;1;1;
48717;PMS5003;34521;33.042;-96.586;2023-05-07T10:02:39;1;1;
48717;PMS5003;34521;33.042;-96.586;2023-05-07T10:05:04;1;1;
48717;PMS5003;34521;33.042;-96.586;2023-05-07T10:07:29;1;1;
48717;PMS5003;34521;33.042;-96.586;2023-05-07T10:09:55;1;1;
48717;PMS5003;34521;33.042;-96.586;2023-05-07T10:12:19;0;0;
48717;PMS5003;34521;33.042;-96.586;2023-05-07T10:14:44;2;2;
48717;PMS5003;34521;33.042;-96.586;2023-05-07T10:17:10;0;0;
48717;PMS5003;34521;33.042;-96.586;2023-05-07T10:19:34;1;1;
48717;PMS5003;34521;33.042;-96.586;2023-05-07T10:22:02;1;1;
48717;PMS5003;34521;33.042;-96.586;2023-05-07T10:24:25;1;1;
48717;PMS5003;34521;33.042;-96.586;2023-05-07T10:26:50;1;1;
48717;PMS5003;34521;33.042;-96.586;2023-05-07T10:29:21;0;0;
48717;PMS5003;34521;33.042;-96.586;2023-05-07T10:31:44;0;0;
48717;PMS5003;34521;33.042;-96.586;2023-05-07T10:34:07;1;1;
48717;PMS5003;34521;33.042;-96.586;2023-05-07T10:36:29;0;0;
48717;PMS5003;34521;33.042;-96.586;2023-05-07T10:38:56;0;0;
48717;PMS5003;34521;33.042;-96.586;2023-05-07T10:41:20;1;1;
48717;PMS5003;34521;33.042;-96.586;2023-05-07T10:43:45;0;0;
48717;PMS5003;34521;33.042;-96.586;2023-05-07T10:46:10;0;0;
48717;PMS5003;34521;33.042;-96.586;2023-05-07T10:48:35;1;1;
48717;PMS5003;34521;33.042;-96.586;2023-05-07T10:53:25;2;2;
48717;PMS5003;34521;33.042;-96.586;2023-05-07T10:55:51;2;1;
48717;PMS5003;34521;33.042;-96.586;2023-05-07T10:58:22;3;2;
48717;PMS5003;34521;33.042;-96.586;2023-05-07T11:00:41;3;3;
48717;PMS5003;34521;33.042;-96.586;2023-05-07T11:03:05;3;3;
48717;PMS5003;34521;33.042;-96.586;2023-05-07T11:05:31;2;2;
48717;PMS5003;34521;33.042;-96.586;2023-05-07T11:08:00;2;2;
48717;PMS5003;34521;33.042;-96.586;2023-05-07T11:10:20;3;3;
48717;PMS5003;34521;33.042;-96.586;2023-05-07T11:12:48;2;2;
48717;PMS5003;34521;33.042;-96.586;2023-05-07T11:15:11;2;2;
48717;PMS5003;34521;33.042;-96.586;2023-05-07T11:17:51;2;2;
48717;PMS5003;34521;33.042;-96.586;2023-05-07T11:20:01;2;2;
48717;PMS5003;34521;33.042;-96.586;2023-05-07T11:24:50;3;2;
48717;PMS5003;34521;33.042;-96.586;2023-05-07T11:27:15;3;2;
48717;PMS5003;34521;33.042;-96.586;2023-05-07T11:29:44;3;3;
48717;PMS5003;34521;33.042;-96.586;2023-05-07T11:32:05;2;2;
48717;PMS5003;34521;33.042;-96.586;2023-05-07T11:34:31;2;2;
48717;PMS5003;34521;33.042;-96.586;2023-05-07T11:36:55;2;2;
48717;PMS5003;34521;33.042;-96.586;2023-05-07T11:39:24;2;2;
48717;PMS5003;34521;33.042;-96.586;2023-05-07T11:41:46;2;2;
48717;PMS5003;34521;33.042;-96.586;2023-05-07T11:44:11;3;2;
48717;PMS5003;34521;33.042;-96.586;2023-05-07T11:46:36;3;3;
48717;PMS5003;34521;33.042;-96.586;2023-05-07T11:49:01;2;2;
48717;PMS5003;34521;33.042;-96.586;2023-05-07T11:51:25;2;2;
48717;PMS5003;34521;33.042;-96.586;2023-05-07T11:53:51;3;3;
48717;PMS5003;34521;33.042;-96.586;2023-05-07T11:56:16;3;3;
48717;PMS5003;34521;33.042;-96.586;2023-05-07T11:58:41;4;3;
48717;PMS5003;34521;33.042;-96.586;2023-05-07T12:01:07;3;3;
48717;PMS5003;34521;33.042;-96.586;2023-05-07T12:03:31;2;2;
48717;PMS5003;34521;33.042;-96.586;2023-05-07T12:05:56;3;2;
48717;PMS5003;34521;33.042;-96.586;2023-05-07T12:08:21;3;3;
48717;PMS5003;34521;33.042;-96.586;2023-05-07T12:10:47;2;2;
48717;PMS5003;34521;33.042;-96.586;2023-05-07T12:13:14;4;3;
48717;PMS5003;34521;33.042;-96.586;2023-05-07T12:15:36;3;3;
48717;PMS5003;34521;33.042;-96.586;2023-05-07T12:18:01;2;2;
48717;PMS5003;34521;33.042;-96.586;2023-05-07T12:20:26;4;3;
48717;PMS5003;34521;33.042;-96.586;2023-05-07T12:22:56;1;1;
48717;PMS5003;34521;33.042;-96.586;2023-05-07T12:25:18;3;3;
48717;PMS5003;34521;33.042;-96.586;2023-05-07T12:27:41;4;3;
48717;PMS5003;34521;33.042;-96.586;2023-05-07T12:30:08;2;2;
48717;PMS5003;34521;33.042;-96.586;2023-05-07T12:32:31;2;2;
48717;PMS5003;34521;33.042;-96.586;2023-05-07T12:34:56;2;2;
48717;PMS5003;34521;33.042;-96.586;2023-05-07T12:37:23;3;2;
48717;PMS5003;34521;33.042;-96.586;2023-05-07T12:39:47;2;2;
48717;PMS5003;34521;33.042;-96.586;2023-05-07T12:42:14;1;1;
48717;PMS5003;34521;33.042;-96.586;2023-05-07T12:44:37;3;3;
48717;PMS5003;34521;33.042;-96.586;2023-05-07T12:47:02;2;2;
48717;PMS5003;34521;33.042;-96.586;2023-05-07T12:49:27;6;5;
48717;PMS5003;34521;33.042;-96.586;2023-05-07T12:51:53;4;3;
48717;PMS5003;34521;33.042;-96.586;2023-05-07T12:56:43;2;2;
48717;PMS5003;34521;33.042;-96.586;2023-05-07T12:59:07;2;2;
48717;PMS5003;34521;33.042;-96.586;2023-05-07T13:01:33;2;2;
48717;PMS5003;34521;33.042;-96.586;2023-05-07T13:04:00;3;3;
48717;PMS5003;34521;33.042;-96.586;2023-05-07T13:06:23;3;3;
48717;PMS5003;34521;33.042;-96.586;2023-05-07T13:08:48;2;2;
48717;PMS5003;34521;33.042;-96.586;2023-05-07T13:11:13;5;3;
48717;PMS5003;34521;33.042;-96.586;2023-05-07T13:13:38;2;2;
48717;PMS5003;34521;33.042;-96.586;2023-05-07T13:16:03;3;3;
48717;PMS5003;34521;33.042;-96.586;2023-05-07T13:18:29;2;2;
48717;PMS5003;34521;33.042;-96.586;2023-05-07T13:20:53;1;0;
48717;PMS5003;34521;33.042;-96.586;2023-05-07T13:23:18;0;0;
48717;PMS5003;34521;33.042;-96.586;2023-05-07T13:25:43;3;2;
48717;PMS5003;34521;33.042;-96.586;2023-05-07T13:28:08;3;3;
48717;PMS5003;34521;33.042;-96.586;2023-05-07T13:30:33;2;2;
48717;PMS5003;34521;33.042;-96.586;2023-05-07T13:32:58;2;2;
48717;PMS5003;34521;33.042;-96.586;2023-05-07T13:35:23;1;1;
48717;PMS5003;34521;33.042;-96.586;2023-05-07T13:37:48;3;3;
48717;PMS5003;34521;33.042;-96.586;2023-05-07T13:40:13;2;2;
48717;PMS5003;34521;33.042;-96.586;2023-05-07T13:42:38;3;3;
48717;PMS5003;34521;33.042;-96.586;2023-05-07T13:45:03;3;3;
48717;PMS5003;34521;33.042;-96.586;2023-05-07T13:47:28;2;2;
48717;PMS5003;34521;33.042;-96.586;2023-05-07T13:49:53;3;2;
48717;PMS5003;34521;33.042;-96.586;2023-05-07T13:52:18;2;2;
48717;PMS5003;34521;33.042;-96.586;2023-05-07T13:54:43;3;2;
48717;PMS5003;34521;33.042;-96.586;2023-05-07T13:57:08;3;3;
48717;PMS5003;34521;33.042;-96.586;2023-05-07T13:59:33;2;2;
48717;PMS5003;34521;33.042;-96.586;2023-05-07T14:01:58;3;3;
48717;PMS5003;34521;33.042;-96.586;2023-05-07T14:04:23;1;1;
48717;PMS5003;34521;33.042;-96.586;2023-05-07T14:06:49;1;1;
48717;PMS5003;34521;33.042;-96.586;2023-05-07T14:09:14;3;3;
48717;PMS5003;34521;33.042;-96.586;2023-05-07T14:11:39;3;3;
48717;PMS5003;34521;33.042;-96.586;2023-05-07T14:14:04;2;2;
48717;PMS5003;34521;33.042;-96.586;2023-05-07T14:16:29;0;0;
48717;PMS5003;34521;33.042;-96.586;2023-05-07T14:18:59;3;3;
48717;PMS5003;34521;33.042;-96.586;2023-05-07T14:21:19;2;2;
48717;PMS5003;34521;33.042;-96.586;2023-05-07T14:23:44;3;2;
48717;PMS5003;34521;33.042;-96.586;2023-05-07T14:26:09;3;3;
48717;PMS5003;34521;33.042;-96.586;2023-05-07T14:28:34;3;3;
48717;PMS5003;34521;33.042;-96.586;2023-05-07T14:30:59;2;2;
48717;PMS5003;34521;33.042;-96.586;2023-05-07T14:33:24;3;2;
48717;PMS5003;34521;33.042;-96.586;2023-05-07T14:35:50;3;2;
48717;PMS5003;34521;33.042;-96.586;2023-05-07T14:38:15;4;4;
48717;PMS5003;34521;33.042;-96.586;2023-05-07T14:40:40;4;3;
48717;PMS5003;34521;33.042;-96.586;2023-05-07T14:43:05;2;2;
48717;PMS5003;34521;33.042;-96.586;2023-05-07T14:45:30;1;1;
48717;PMS5003;34521;33.042;-96.586;2023-05-07T14:47:55;4;4;
48717;PMS5003;34521;33.042;-96.586;2023-05-07T14:50:20;3;3;
48717;PMS5003;34521;33.042;-96.586;2023-05-07T14:52:45;3;2;
48717;PMS5003;34521;33.042;-96.586;2023-05-07T14:55:10;2;2;
48717;PMS5003;34521;33.042;-96.586;2023-05-07T14:57:40;3;3;
48717;PMS5003;34521;33.042;-96.586;2023-05-07T15:00:00;1;1;
48717;PMS5003;34521;33.042;-96.586;2023-05-07T15:02:35;2;2;
48717;PMS5003;34521;33.042;-96.586;2023-05-07T15:04:50;2;2;
48717;PMS5003;34521;33.042;-96.586;2023-05-07T15:07:15;2;2;
48717;PMS5003;34521;33.042;-96.586;2023-05-07T15:09:41;2;2;
48717;PMS5003;34521;33.042;-96.586;2023-05-07T15:12:06;2;2;
48717;PMS5003;34521;33.042;-96.586;2023-05-07T15:14:31;3;2;
48717;PMS5003;34521;33.042;-96.586;2023-05-07T15:16:56;2;2;
48717;PMS5003;34521;33.042;-96.586;2023-05-07T15:19:21;3;2;
48717;PMS5003;34521;33.042;-96.586;2023-05-07T15:21:46;2;2;
48717;PMS5003;34521;33.042;-96.586;2023-05-07T15:24:11;2;2;
48717;PMS5003;34521;33.042;-96.586;2023-05-07T15:26:36;3;3;
48717;PMS5003;34521;33.042;-96.586;2023-05-07T15:29:01;1;1;
48717;PMS5003;34521;33.042;-96.586;2023-05-07T15:31:26;2;1;
48717;PMS5003;34521;33.042;-96.586;2023-05-07T15:33:51;3;3;
48717;PMS5003;34521;33.042;-96.586;2023-05-07T15:36:16;4;4;
48717;PMS5003;34521;33.042;-96.586;2023-05-07T15:38:41;3;3;
48717;PMS5003;34521;33.042;-96.586;2023-05-07T15:41:06;2;2;
48717;PMS5003;34521;33.042;-96.586;2023-05-07T15:43:31;2;2;
48717;PMS5003;34521;33.042;-96.586;2023-05-07T15:45:56;2;2;
48717;PMS5003;34521;33.042;-96.586;2023-05-07T15:48:21;2;2;
48717;PMS5003;34521;33.042;-96.586;2023-05-07T15:50:46;2;2;
48717;PMS5003;34521;33.042;-96.586;2023-05-07T15:53:11;2;2;
48717;PMS5003;34521;33.042;-96.586;2023-05-07T15:55:36;3;3;
48717;PMS5003;34521;33.042;-96.586;2023-05-07T15:58:01;3;3;
48717;PMS5003;34521;33.042;-96.586;2023-05-07T16:00:27;1;1;
48717;PMS5003;34521;33.042;-96.586;2023-05-07T16:02:51;4;4;
48717;PMS5003;34521;33.042;-96.586;2023-05-07T16:05:16;2;2;
48717;PMS5003;34521;33.042;-96.586;2023-05-07T16:07:41;1;1;
48717;PMS5003;34521;33.042;-96.586;2023-05-07T16:10:07;3;2;